createdAt,value
2024-02-02T00:00:39.064Z,4.30
2024-02-02T00:03:06.742Z,4.30
2024-02-02T00:05:34.436Z,4.30
2024-02-02T00:08:01.425Z,4.30
2024-02-02T00:10:28.571Z,4.30
2024-02-02T00:12:56.919Z,4.30
2024-02-02T00:15:24.388Z,4.40
2024-02-02T00:17:51.930Z,4.40
2024-02-02T00:20:19.234Z,4.40
2024-02-02T00:22:46.233Z,4.40
2024-02-02T00:25:13.219Z,4.40
2024-02-02T00:27:40.280Z,4.40
2024-02-02T00:30:07.838Z,4.40
2024-02-02T00:32:34.982Z,4.40
2024-02-02T00:35:02.017Z,4.40
2024-02-02T00:37:29.628Z,4.40
2024-02-02T00:39:57.491Z,4.40
2024-02-02T00:42:24.679Z,4.40
2024-02-02T00:44:51.962Z,4.40
2024-02-02T00:47:19.051Z,4.40
2024-02-02T00:49:46.141Z,4.40
2024-02-02T00:52:13.979Z,4.50
2024-02-02T00:54:40.908Z,4.50
2024-02-02T00:57:07.925Z,4.50
2024-02-02T00:59:34.970Z,4.50
2024-02-02T01:02:01.819Z,4.50
2024-02-02T01:04:29.146Z,4.50
2024-02-02T01:06:57.686Z,4.50
2024-02-02T01:09:25.496Z,4.50
2024-02-02T01:11:55.427Z,4.50
2024-02-02T01:14:22.810Z,4.50
2024-02-02T01:16:49.960Z,4.50
2024-02-02T01:19:18.290Z,4.50
2024-02-02T01:21:46.386Z,4.50
2024-02-02T01:24:13.528Z,4.50
2024-02-02T01:26:43.380Z,4.50
2024-02-02T01:29:10.832Z,4.50
2024-02-02T01:31:37.946Z,4.50
2024-02-02T01:34:05.293Z,4.60
2024-02-02T01:36:32.532Z,4.60
2024-02-02T01:38:59.647Z,4.50
2024-02-02T01:41:26.625Z,4.60
2024-02-02T01:43:54.437Z,4.50
2024-02-02T01:46:21.648Z,4.60
2024-02-02T01:48:49.693Z,4.50
2024-02-02T01:51:17.039Z,4.60
2024-02-02T01:53:44.195Z,4.50
2024-02-02T01:56:11.608Z,4.60
2024-02-02T01:58:39.095Z,4.50
2024-02-02T02:01:06.575Z,4.60
2024-02-02T02:03:33.768Z,4.60
2024-02-02T02:06:02.017Z,4.60
2024-02-02T02:08:29.120Z,4.60
2024-02-02T02:10:56.496Z,4.60
2024-02-02T02:13:25.523Z,4.60
2024-02-02T02:15:52.498Z,4.60
2024-02-02T02:18:20.254Z,4.60
2024-02-02T02:20:53.355Z,4.60
2024-02-02T02:23:20.275Z,4.60
2024-02-02T02:25:47.423Z,4.60
2024-02-02T02:28:15.010Z,4.60
2024-02-02T02:30:45.784Z,4.60
2024-02-02T02:33:15.323Z,4.60
2024-02-02T02:35:42.655Z,4.60
2024-02-02T02:38:09.923Z,4.60
2024-02-02T02:40:36.826Z,4.60
2024-02-02T02:43:04.791Z,4.70
2024-02-02T02:45:32.603Z,4.70
2024-02-02T02:47:59.626Z,4.70
2024-02-02T02:50:26.856Z,4.70
2024-02-02T02:52:53.818Z,4.70
2024-02-02T02:55:21.490Z,4.70
2024-02-02T02:57:48.536Z,4.70
2024-02-02T03:00:15.869Z,4.70
2024-02-02T03:02:42.856Z,4.70
2024-02-02T03:05:10.126Z,4.80
2024-02-02T03:07:37.088Z,4.80
2024-02-02T03:10:04.785Z,4.80
2024-02-02T03:12:31.833Z,4.80
2024-02-02T03:14:59.383Z,4.80
2024-02-02T03:17:26.996Z,4.80
2024-02-02T03:19:54.523Z,4.80
2024-02-02T03:22:21.774Z,4.80
2024-02-02T03:24:49.091Z,4.80
2024-02-02T03:27:16.147Z,4.80
2024-02-02T03:29:43.169Z,4.80
2024-02-02T03:32:10.147Z,4.80
2024-02-02T03:34:37.269Z,4.80
2024-02-02T03:37:04.485Z,4.90
2024-02-02T03:39:32.455Z,4.80
2024-02-02T03:41:59.552Z,4.90
2024-02-02T03:44:26.559Z,4.90
2024-02-02T03:46:53.473Z,4.90
2024-02-02T03:49:20.944Z,4.90
2024-02-02T03:51:48.254Z,4.90
2024-02-02T03:54:15.518Z,4.90
2024-02-02T03:56:44.413Z,4.90
2024-02-02T03:59:11.448Z,4.90
2024-02-02T04:01:38.415Z,4.90
2024-02-02T04:04:06.183Z,4.90
2024-02-02T04:06:33.878Z,4.90
2024-02-02T04:09:01.409Z,4.90
2024-02-02T04:11:29.280Z,4.90
2024-02-02T04:13:56.242Z,4.90
2024-02-02T04:16:23.703Z,4.90
2024-02-02T04:18:51.008Z,4.90
2024-02-02T04:21:18.091Z,4.90
2024-02-02T04:23:45.100Z,4.90
2024-02-02T04:26:12.095Z,5.00
2024-02-02T04:28:39.381Z,5.00
2024-02-02T04:31:06.830Z,5.00
2024-02-02T04:33:34.147Z,5.00
2024-02-02T04:36:01.408Z,5.00
2024-02-02T04:38:28.518Z,5.00
2024-02-02T04:40:55.906Z,5.00
2024-02-02T04:43:22.877Z,5.00
2024-02-02T04:45:49.910Z,5.10
2024-02-02T04:48:17.422Z,5.00
2024-02-02T04:50:44.696Z,5.00
2024-02-02T04:53:11.997Z,5.00
2024-02-02T04:55:39.106Z,5.10
2024-02-02T04:58:06.242Z,5.10
2024-02-02T05:00:33.386Z,5.10
2024-02-02T05:03:00.481Z,5.10
2024-02-02T05:05:27.375Z,5.10
2024-02-02T05:07:54.434Z,5.10
2024-02-02T05:10:21.400Z,5.10
2024-02-02T05:12:48.428Z,5.10
2024-02-02T05:15:15.442Z,5.00
2024-02-02T05:17:46.604Z,5.00
2024-02-02T05:20:14.175Z,5.00
2024-02-02T05:22:42.209Z,5.00
2024-02-02T05:25:09.901Z,4.90
2024-02-02T05:27:37.498Z,4.90
2024-02-02T05:30:06.667Z,4.90
2024-02-02T05:32:33.954Z,4.90
2024-02-02T05:35:01.208Z,4.90
2024-02-02T05:37:28.286Z,4.90
2024-02-02T05:39:55.818Z,4.90
2024-02-02T05:42:23.803Z,4.90
2024-02-02T05:44:51.020Z,4.90
2024-02-02T05:47:18.244Z,4.90
2024-02-02T05:49:45.576Z,4.90
2024-02-02T05:52:12.660Z,5.00
2024-02-02T05:54:39.991Z,5.00
2024-02-02T05:57:07.469Z,5.00
2024-02-02T05:59:34.629Z,5.00
2024-02-02T06:02:02.078Z,5.00
2024-02-02T06:04:29.264Z,5.00
2024-02-02T06:06:56.843Z,5.00
2024-02-02T06:09:25.795Z,5.00
2024-02-02T06:11:53.547Z,5.00
2024-02-02T06:14:22.016Z,5.10
2024-02-02T06:16:49.720Z,5.00
2024-02-02T06:19:16.863Z,5.00
2024-02-02T06:21:44.093Z,5.00
2024-02-02T06:24:11.159Z,5.00
2024-02-02T06:26:39.468Z,5.10
2024-02-02T06:29:06.916Z,5.10
2024-02-02T06:31:34.392Z,5.10
2024-02-02T06:34:02.563Z,5.10
2024-02-02T06:36:30.434Z,5.20
2024-02-02T06:38:58.316Z,5.10
2024-02-02T06:41:25.932Z,5.10
2024-02-02T06:43:52.909Z,5.10
2024-02-02T06:46:20.683Z,5.10
2024-02-02T06:48:50.103Z,5.20
2024-02-02T06:51:17.597Z,5.10
2024-02-02T06:53:46.013Z,5.20
2024-02-02T06:56:37.740Z,5.20
2024-02-02T06:59:08.629Z,5.20
2024-02-02T07:01:36.774Z,5.20
2024-02-02T07:04:07.612Z,5.20
2024-02-02T07:06:36.629Z,5.20
2024-02-02T07:09:32.365Z,5.30
2024-02-02T07:12:06.965Z,5.30
2024-02-02T07:14:45.570Z,5.30
2024-02-02T07:17:39.737Z,5.30
2024-02-02T07:20:11.224Z,5.30
2024-02-02T07:22:43.638Z,5.40
2024-02-02T07:25:19.401Z,5.30
2024-02-02T07:27:57.409Z,5.40
2024-02-02T07:30:36.501Z,5.40
2024-02-02T07:33:05.834Z,5.40
2024-02-02T07:35:35.466Z,5.50
2024-02-02T07:38:06.136Z,5.50
2024-02-02T07:40:55.102Z,5.50
2024-02-02T07:43:22.092Z,5.50
2024-02-02T07:45:49.345Z,5.50
2024-02-02T07:48:16.524Z,5.60
2024-02-02T07:50:43.471Z,5.60
2024-02-02T07:53:10.906Z,5.60
2024-02-02T07:55:38.018Z,5.60
2024-02-02T07:58:06.139Z,5.70
2024-02-02T08:00:34.423Z,5.70
2024-02-02T08:03:01.499Z,5.70
2024-02-02T08:05:31.490Z,5.70
2024-02-02T08:07:58.390Z,5.70
2024-02-02T08:10:25.544Z,5.70
2024-02-02T08:12:52.779Z,5.70
2024-02-02T08:15:19.949Z,5.70
2024-02-02T08:17:47.176Z,5.70
2024-02-02T08:20:15.958Z,5.70
2024-02-02T08:22:46.186Z,5.80
2024-02-02T08:25:13.893Z,5.90
2024-02-02T08:27:41.030Z,5.90
2024-02-02T08:30:13.406Z,6.00
2024-02-02T08:32:41.405Z,6.10
2024-02-02T08:35:09.574Z,6.10
2024-02-02T08:37:37.265Z,6.20
2024-02-02T08:40:06.892Z,6.30
2024-02-02T08:42:34.072Z,6.40
2024-02-02T08:47:35.666Z,6.50
2024-02-02T08:50:05.541Z,6.40
2024-02-02T08:52:33.400Z,6.40
2024-02-02T08:55:21.794Z,6.30
2024-02-02T08:58:16.711Z,6.30
2024-02-02T09:00:45.083Z,6.20
2024-02-02T09:03:26.490Z,6.20
2024-02-02T09:06:14.884Z,6.30
2024-02-02T09:08:43.451Z,6.30
2024-02-02T09:11:13.901Z,6.30
2024-02-02T09:13:42.151Z,6.30
2024-02-02T09:16:11.216Z,6.20
2024-02-02T09:18:42.658Z,6.30
2024-02-02T09:21:14.390Z,6.30
2024-02-02T09:23:50.564Z,6.30
2024-02-02T09:26:32.267Z,6.30
2024-02-02T09:29:02.835Z,6.30
2024-02-02T09:31:37.531Z,6.30
2024-02-02T09:34:10.170Z,6.30
2024-02-02T09:36:41.158Z,6.30
2024-02-02T09:39:19.501Z,6.30
2024-02-02T09:42:28.977Z,6.30
2024-02-02T09:45:04.049Z,6.30
2024-02-02T09:47:50.690Z,6.30
2024-02-02T09:50:33.562Z,6.30
2024-02-02T09:53:28.683Z,6.30
2024-02-02T09:56:35.384Z,6.20
2024-02-02T09:59:26.505Z,6.30
2024-02-02T10:02:09.659Z,6.30
2024-02-02T10:04:56.201Z,6.30
2024-02-02T10:07:48.189Z,6.30
2024-02-02T10:10:41.554Z,6.30
2024-02-02T10:13:40.026Z,6.30
2024-02-02T10:16:26.481Z,6.30
2024-02-02T10:19:08.961Z,6.40
2024-02-02T10:22:00.691Z,6.40
2024-02-02T10:24:41.820Z,6.40
2024-02-02T10:27:44.184Z,6.40
2024-02-02T10:30:28.577Z,6.40
2024-02-02T10:33:36.060Z,6.40
2024-02-02T10:36:09.850Z,6.40
2024-02-02T10:39:01.242Z,6.50
2024-02-02T10:42:10.351Z,6.50
2024-02-02T10:45:16.285Z,6.50
2024-02-02T10:47:53.978Z,6.50
2024-02-02T10:50:22.797Z,6.50
2024-02-02T10:52:58.753Z,6.50
2024-02-02T10:55:57.657Z,6.50
2024-02-02T10:58:54.351Z,6.60
2024-02-02T11:01:52.602Z,6.50
2024-02-02T11:04:39.637Z,6.60
2024-02-02T11:07:22.650Z,6.60
2024-02-02T11:10:01.961Z,6.70
2024-02-02T11:13:00.827Z,6.80
2024-02-02T11:16:05.539Z,6.80
2024-02-02T11:18:46.224Z,6.80
2024-02-02T11:21:23.095Z,6.80
2024-02-02T11:24:15.005Z,6.80
2024-02-02T11:27:07.108Z,6.90
2024-02-02T11:29:53.431Z,6.90
2024-02-02T11:32:40.767Z,6.90
2024-02-02T11:35:17.336Z,6.90
2024-02-02T11:38:13.120Z,6.90
2024-02-02T11:40:43.346Z,6.90
2024-02-02T11:43:11.524Z,6.90
2024-02-02T11:45:44.642Z,7.00
2024-02-02T11:48:21.771Z,7.00
2024-02-02T11:50:50.455Z,7.00
2024-02-02T11:53:34.437Z,7.10
2024-02-02T11:56:08.911Z,7.20
2024-02-02T11:58:40.005Z,7.20
2024-02-02T12:01:24.682Z,7.30
2024-02-02T12:04:01.378Z,7.40
2024-02-02T12:06:34.199Z,7.50
2024-02-02T12:09:18.680Z,7.60
2024-02-02T12:11:49.701Z,7.70
2024-02-02T12:14:27.342Z,7.70
2024-02-02T12:16:54.991Z,7.80
2024-02-02T12:19:23.395Z,7.80
2024-02-02T12:21:50.692Z,8.00
2024-02-02T12:24:18.599Z,8.10
2024-02-02T12:26:49.525Z,8.20
2024-02-02T12:29:17.273Z,8.30
2024-02-02T12:31:44.441Z,8.40
2024-02-02T12:34:13.043Z,8.30
2024-02-02T12:36:40.385Z,8.40
2024-02-02T12:39:08.836Z,8.50
2024-02-02T12:41:37.003Z,8.50
2024-02-02T12:44:07.441Z,8.40
2024-02-02T12:46:48.974Z,8.30
2024-02-02T12:49:16.348Z,8.20
2024-02-02T12:51:45.383Z,8.20
2024-02-02T12:54:13.059Z,8.20
2024-02-02T12:56:41.107Z,8.20
2024-02-02T12:59:13.734Z,8.30
2024-02-02T13:01:43.143Z,8.40
2024-02-02T13:04:11.315Z,8.50
2024-02-02T13:06:38.443Z,8.50
2024-02-02T13:09:20.167Z,8.50
2024-02-02T13:11:48.291Z,8.60
2024-02-02T13:14:30.295Z,8.60
2024-02-02T13:17:10.537Z,8.60
2024-02-02T13:19:50.411Z,8.50
2024-02-02T13:22:27.890Z,8.50
2024-02-02T13:24:58.481Z,8.50
2024-02-02T13:27:31.988Z,8.50
2024-02-02T13:30:04.205Z,8.50
2024-02-02T13:32:39.644Z,8.50
2024-02-02T13:35:10.485Z,8.50
2024-02-02T13:37:44.484Z,8.50
2024-02-02T13:40:14.498Z,8.50
2024-02-02T13:42:42.816Z,8.40
2024-02-02T13:45:17.513Z,8.40
2024-02-02T13:47:54.535Z,8.30
2024-02-02T13:50:31.215Z,8.30
2024-02-02T13:53:01.980Z,8.30
2024-02-02T13:55:34.151Z,8.20
2024-02-02T13:58:02.358Z,8.20
2024-02-02T14:00:33.615Z,8.10
2024-02-02T14:03:12.046Z,8.00
2024-02-02T14:05:42.982Z,8.00
2024-02-02T14:08:10.985Z,7.90
2024-02-02T14:10:49.521Z,7.90
2024-02-02T14:13:20.823Z,7.90
2024-02-02T14:15:49.983Z,7.80
2024-02-02T14:18:21.602Z,7.80
2024-02-02T14:20:49.449Z,7.70
2024-02-02T14:23:17.249Z,7.70
2024-02-02T14:25:44.674Z,7.70
2024-02-02T14:28:17.199Z,7.60
2024-02-02T14:30:45.419Z,7.60
2024-02-02T14:33:25.561Z,7.60
2024-02-02T14:35:58.240Z,7.50
2024-02-02T14:38:26.460Z,7.50
2024-02-02T14:40:54.577Z,7.50
2024-02-02T14:43:22.527Z,7.50
2024-02-02T14:45:49.787Z,7.40
2024-02-02T14:48:19.250Z,7.40
2024-02-02T14:50:46.952Z,7.40
2024-02-02T14:53:14.367Z,7.40
2024-02-02T14:55:41.868Z,7.40
2024-02-02T14:58:10.043Z,7.40
2024-02-02T15:00:45.347Z,7.40
2024-02-02T15:03:14.562Z,7.40
2024-02-02T15:05:41.797Z,7.30
2024-02-02T15:08:10.149Z,7.40
2024-02-02T15:10:38.750Z,7.30
2024-02-02T15:13:06.236Z,7.30
2024-02-02T15:15:34.079Z,7.30
2024-02-02T15:18:02.722Z,7.30
2024-02-02T15:20:30.041Z,7.30
2024-02-02T15:22:57.714Z,7.30
2024-02-02T15:25:25.124Z,7.30
2024-02-02T15:27:52.904Z,7.30
2024-02-02T15:30:20.476Z,7.30
2024-02-02T15:32:47.929Z,7.30
2024-02-02T15:35:15.387Z,7.30
2024-02-02T15:37:43.562Z,7.20
2024-02-02T15:40:10.829Z,7.20
2024-02-02T15:42:38.412Z,7.20
2024-02-02T15:45:06.933Z,7.20
2024-02-02T15:47:35.407Z,7.20
2024-02-02T15:50:02.869Z,7.20
2024-02-02T15:52:30.436Z,7.20
2024-02-02T15:55:04.488Z,7.20
2024-02-02T15:57:32.468Z,7.20
2024-02-02T16:00:00.350Z,7.20
2024-02-02T16:02:28.249Z,7.20
2024-02-02T16:04:58.733Z,7.20
2024-02-02T16:07:26.241Z,7.20
2024-02-02T16:09:53.884Z,7.20
2024-02-02T16:12:22.925Z,7.20
2024-02-02T16:14:50.171Z,7.20
2024-02-02T16:17:18.710Z,7.20
2024-02-02T16:19:47.068Z,7.20
2024-02-02T16:22:15.475Z,7.10
2024-02-02T16:24:43.207Z,7.20
2024-02-02T16:27:10.650Z,7.20
2024-02-02T16:29:38.397Z,7.20
2024-02-02T16:32:06.418Z,7.20
2024-02-02T16:34:35.310Z,7.20
2024-02-02T16:37:02.835Z,7.20
2024-02-02T16:39:34.465Z,7.20
2024-02-02T16:42:02.247Z,7.20
2024-02-02T16:44:30.405Z,7.20
2024-02-02T16:46:58.150Z,7.20
2024-02-02T16:49:26.171Z,7.20
2024-02-02T16:51:53.245Z,7.20
2024-02-02T16:54:21.272Z,7.20
2024-02-02T16:56:48.967Z,7.20
2024-02-02T16:59:16.691Z,7.20
2024-02-02T17:01:43.988Z,7.20
2024-02-02T17:04:11.282Z,7.20
2024-02-02T17:06:42.429Z,7.20
2024-02-02T17:09:10.572Z,7.30
2024-02-02T17:11:38.309Z,7.30
2024-02-02T17:14:05.541Z,7.30
2024-02-02T17:16:32.931Z,7.30
2024-02-02T17:19:00.492Z,7.30
2024-02-02T17:21:27.750Z,7.30
2024-02-02T17:23:55.428Z,7.30
2024-02-02T17:26:22.787Z,7.40
2024-02-02T17:28:55.174Z,7.30
2024-02-02T17:31:27.515Z,7.40
2024-02-02T17:33:55.221Z,7.30
2024-02-02T17:36:22.593Z,7.40
2024-02-02T17:38:49.962Z,7.40
2024-02-02T17:41:18.728Z,7.40
2024-02-02T17:43:47.621Z,7.40
2024-02-02T17:46:16.469Z,7.40
2024-02-02T17:48:43.809Z,7.40
2024-02-02T17:51:11.622Z,7.40
2024-02-02T17:53:42.414Z,7.40
2024-02-02T17:56:10.097Z,7.40
2024-02-02T17:58:37.341Z,7.40
2024-02-02T18:01:08.315Z,7.40
2024-02-02T18:03:36.045Z,7.40
2024-02-02T18:06:05.598Z,7.40
2024-02-02T18:08:33.336Z,7.40
2024-02-02T18:11:01.123Z,7.40
2024-02-02T18:13:28.287Z,7.40
2024-02-02T18:15:55.492Z,7.40
2024-02-02T18:18:23.859Z,7.40
2024-02-02T18:20:51.186Z,7.40
2024-02-02T18:23:18.868Z,7.40
2024-02-02T18:25:45.905Z,7.40
2024-02-02T18:28:17.177Z,7.50
2024-02-02T18:30:45.138Z,7.50
2024-02-02T18:33:12.540Z,7.50
2024-02-02T18:35:39.530Z,7.50
2024-02-02T18:38:06.806Z,7.50
2024-02-02T18:40:35.593Z,7.60
2024-02-02T18:43:02.858Z,7.50
2024-02-02T18:45:30.036Z,7.50
2024-02-02T18:47:57.266Z,7.60
2024-02-02T18:50:24.387Z,7.60
2024-02-02T18:52:51.646Z,7.60
2024-02-02T18:55:18.915Z,7.60
2024-02-02T18:57:46.167Z,7.70
2024-02-02T19:00:15.767Z,7.70
2024-02-02T19:02:43.003Z,7.70
2024-02-02T19:05:10.364Z,7.70
2024-02-02T19:07:38.069Z,7.70
2024-02-02T19:10:06.188Z,7.70
2024-02-02T19:12:34.223Z,7.80
2024-02-02T19:15:06.239Z,7.70
2024-02-02T19:17:33.562Z,7.70
2024-02-02T19:20:01.269Z,7.70
2024-02-02T19:22:28.855Z,7.80
2024-02-02T19:24:59.543Z,7.80
2024-02-02T19:27:27.343Z,7.80
2024-02-02T19:29:55.194Z,7.80
2024-02-02T19:32:22.474Z,7.80
2024-02-02T19:34:49.965Z,7.80
2024-02-02T19:37:17.299Z,7.90
2024-02-02T19:39:45.397Z,7.80
2024-02-02T19:42:13.289Z,7.80
2024-02-02T19:44:41.165Z,7.90
2024-02-02T19:47:08.172Z,7.90
2024-02-02T19:49:35.792Z,7.90
2024-02-02T19:52:03.149Z,7.90
2024-02-02T19:54:32.392Z,7.90
2024-02-02T19:57:00.484Z,7.90
2024-02-02T19:59:27.637Z,7.90
2024-02-02T20:01:57.307Z,7.90
2024-02-02T20:04:26.563Z,7.90
2024-02-02T20:06:54.388Z,8.00
2024-02-02T20:09:23.894Z,8.00
2024-02-02T20:11:51.952Z,8.00
2024-02-02T20:14:20.045Z,8.00
2024-02-02T20:16:48.079Z,8.00
2024-02-02T20:19:16.447Z,8.00
2024-02-02T20:21:43.770Z,8.10
2024-02-02T20:24:11.464Z,8.10
2024-02-02T20:26:39.366Z,8.10
2024-02-02T20:29:06.857Z,8.10
2024-02-02T20:31:34.528Z,8.10
2024-02-02T20:34:02.862Z,8.10
2024-02-02T20:36:33.154Z,8.20
2024-02-02T20:39:00.821Z,8.20
2024-02-02T20:41:28.338Z,8.20
2024-02-02T20:43:57.127Z,8.20
2024-02-02T20:46:24.849Z,8.20
2024-02-02T20:48:52.580Z,8.20
2024-02-02T20:51:20.306Z,8.20
2024-02-02T20:53:47.651Z,8.20
2024-02-02T20:56:15.042Z,8.30
2024-02-02T20:58:42.851Z,8.20
2024-02-02T21:01:10.931Z,8.30
2024-02-02T21:03:38.775Z,8.20
2024-02-02T21:06:07.929Z,8.20
2024-02-02T21:08:35.906Z,8.20
2024-02-02T21:11:03.443Z,8.30
2024-02-02T21:13:31.165Z,8.30
2024-02-02T21:15:58.887Z,8.30
2024-02-02T21:18:28.592Z,8.30
2024-02-02T21:20:56.902Z,8.40
2024-02-02T21:23:25.062Z,8.30
2024-02-02T21:25:52.720Z,8.40
2024-02-02T21:28:21.121Z,8.40
2024-02-02T21:30:50.275Z,8.40
2024-02-02T21:33:25.626Z,8.50
2024-02-02T21:35:53.110Z,8.50
2024-02-02T21:38:20.396Z,8.50
2024-02-02T21:40:48.074Z,8.50
2024-02-02T21:43:15.263Z,8.50
2024-02-02T21:45:42.765Z,8.60
2024-02-02T21:48:11.871Z,8.60
2024-02-02T21:50:40.381Z,8.70
2024-02-02T21:53:12.445Z,8.70
2024-02-02T21:55:39.764Z,8.80
2024-02-02T21:58:09.545Z,8.80
2024-02-02T22:00:37.521Z,8.80
2024-02-02T22:03:04.972Z,8.80
2024-02-02T22:05:32.453Z,8.80
2024-02-02T22:08:00.902Z,8.80
2024-02-02T22:10:28.285Z,8.80
2024-02-02T22:12:55.519Z,8.80
2024-02-02T22:15:22.918Z,8.80
2024-02-02T22:17:52.213Z,8.80
2024-02-02T22:20:19.837Z,8.90
2024-02-02T22:22:47.500Z,8.90
2024-02-02T22:25:15.766Z,8.80
2024-02-02T22:27:45.851Z,8.90
2024-02-02T22:30:14.025Z,8.90
2024-02-02T22:32:41.643Z,8.90
2024-02-02T22:35:09.832Z,8.90
2024-02-02T22:37:39.143Z,8.90
2024-02-02T22:40:07.289Z,8.90
2024-02-02T22:42:35.025Z,8.90
2024-02-02T22:45:04.283Z,8.90
2024-02-02T22:47:31.849Z,9.00
2024-02-02T22:49:59.195Z,8.90
2024-02-02T22:52:27.197Z,9.00
2024-02-02T22:54:54.866Z,9.00
2024-02-02T22:57:22.464Z,9.00
2024-02-02T22:59:57.032Z,9.00
2024-02-02T23:02:30.273Z,9.10
2024-02-02T23:04:58.031Z,9.10
2024-02-02T23:07:25.703Z,9.10
2024-02-02T23:09:53.542Z,9.10
2024-02-02T23:12:21.086Z,9.10
2024-02-02T23:14:48.965Z,9.10
2024-02-02T23:17:16.348Z,9.10
2024-02-02T23:19:45.309Z,9.20
2024-02-02T23:22:12.739Z,9.20
2024-02-02T23:24:40.519Z,9.20
2024-02-02T23:27:08.550Z,9.20
2024-02-02T23:29:36.074Z,9.20
2024-02-02T23:32:04.941Z,9.20
2024-02-02T23:34:32.312Z,9.20
2024-02-02T23:36:59.648Z,9.20
2024-02-02T23:39:26.636Z,9.20
2024-02-02T23:41:54.279Z,9.20
2024-02-02T23:44:21.658Z,9.20
2024-02-02T23:46:48.678Z,9.30
2024-02-02T23:49:18.226Z,9.30
2024-02-02T23:51:46.248Z,9.30
2024-02-02T23:54:14.383Z,9.30
2024-02-02T23:56:42.044Z,9.30
2024-02-02T23:59:09.564Z,9.30
